sensor_id;sensor_type;location;lat;lon;timestamp;P1;durP1;ratioP1;P2;durP2;ratioP2
76856;SDS011;69705;44.686;37.628;2023-05-20T00:01:08;15.85;;;8.70;;
76856;SDS011;69705;44.686;37.628;2023-05-20T00:03:35;14.80;;;8.40;;
76856;SDS011;69705;44.686;37.628;2023-05-20T00:06:01;15.77;;;8.35;;
76856;SDS011;69705;44.686;37.628;2023-05-20T00:08:28;16.10;;;8.60;;
76856;SDS011;69705;44.686;37.628;2023-05-20T00:10:55;18.00;;;8.65;;
76856;SDS011;69705;44.686;37.628;2023-05-20T00:13:21;15.82;;;8.82;;
76856;SDS011;69705;44.686;37.628;2023-05-20T00:15:49;14.85;;;8.40;;
76856;SDS011;69705;44.686;37.628;2023-05-20T00:18:15;14.20;;;8.23;;
76856;SDS011;69705;44.686;37.628;2023-05-20T00:20:42;16.07;;;8.57;;
76856;SDS011;69705;44.686;37.628;2023-05-20T00:23:08;15.20;;;8.90;;
76856;SDS011;69705;44.686;37.628;2023-05-20T00:25:35;16.15;;;8.77;;
76856;SDS011;69705;44.686;37.628;2023-05-20T00:28:02;14.93;;;8.38;;
76856;SDS011;69705;44.686;37.628;2023-05-20T00:30:28;19.58;;;9.43;;
76856;SDS011;69705;44.686;37.628;2023-05-20T00:32:55;14.90;;;8.73;;
76856;SDS011;69705;44.686;37.628;2023-05-20T00:35:21;20.50;;;9.35;;
76856;SDS011;69705;44.686;37.628;2023-05-20T00:37:48;17.42;;;8.55;;
76856;SDS011;69705;44.686;37.628;2023-05-20T00:40:14;16.92;;;9.05;;
76856;SDS011;69705;44.686;37.628;2023-05-20T00:42:41;16.58;;;8.73;;
76856;SDS011;69705;44.686;37.628;2023-05-20T00:45:08;20.13;;;8.97;;
76856;SDS011;69705;44.686;37.628;2023-05-20T00:47:37;18.45;;;9.38;;
76856;SDS011;69705;44.686;37.628;2023-05-20T00:50:04;17.65;;;9.50;;
76856;SDS011;69705;44.686;37.628;2023-05-20T00:52:31;17.65;;;8.85;;
76856;SDS011;69705;44.686;37.628;2023-05-20T00:54:58;16.27;;;9.50;;
76856;SDS011;69705;44.686;37.628;2023-05-20T00:57:26;15.70;;;9.60;;
76856;SDS011;69705;44.686;37.628;2023-05-20T00:59:52;16.95;;;9.63;;
76856;SDS011;69705;44.686;37.628;2023-05-20T01:02:19;16.25;;;8.80;;
76856;SDS011;69705;44.686;37.628;2023-05-20T01:04:46;16.65;;;9.00;;
76856;SDS011;69705;44.686;37.628;2023-05-20T01:07:17;15.73;;;9.55;;
76856;SDS011;69705;44.686;37.628;2023-05-20T01:09:45;16.50;;;8.93;;
76856;SDS011;69705;44.686;37.628;2023-05-20T01:12:15;19.50;;;9.10;;
76856;SDS011;69705;44.686;37.628;2023-05-20T01:15:09;17.98;;;9.50;;
76856;SDS011;69705;44.686;37.628;2023-05-20T01:17:47;15.88;;;9.57;;
76856;SDS011;69705;44.686;37.628;2023-05-20T01:20:17;17.80;;;9.82;;
76856;SDS011;69705;44.686;37.628;2023-05-20T01:22:45;15.77;;;9.23;;
76856;SDS011;69705;44.686;37.628;2023-05-20T01:25:18;16.98;;;8.70;;
76856;SDS011;69705;44.686;37.628;2023-05-20T01:27:46;13.75;;;9.05;;
76856;SDS011;69705;44.686;37.628;2023-05-20T01:30:13;14.93;;;8.77;;
76856;SDS011;69705;44.686;37.628;2023-05-20T01:32:46;16.17;;;9.13;;
76856;SDS011;69705;44.686;37.628;2023-05-20T01:35:16;15.07;;;8.70;;
76856;SDS011;69705;44.686;37.628;2023-05-20T01:37:43;13.70;;;8.70;;
76856;SDS011;69705;44.686;37.628;2023-05-20T01:40:11;14.50;;;8.73;;
76856;SDS011;69705;44.686;37.628;2023-05-20T01:42:40;13.95;;;8.88;;
76856;SDS011;69705;44.686;37.628;2023-05-20T01:45:08;13.98;;;8.93;;
76856;SDS011;69705;44.686;37.628;2023-05-20T01:47:36;16.87;;;8.80;;
76856;SDS011;69705;44.686;37.628;2023-05-20T01:50:03;14.80;;;8.65;;
76856;SDS011;69705;44.686;37.628;2023-05-20T01:52:31;14.43;;;9.07;;
76856;SDS011;69705;44.686;37.628;2023-05-20T01:54:57;14.48;;;8.73;;
76856;SDS011;69705;44.686;37.628;2023-05-20T01:57:24;15.20;;;8.85;;
76856;SDS011;69705;44.686;37.628;2023-05-20T01:59:51;18.37;;;9.40;;
76856;SDS011;69705;44.686;37.628;2023-05-20T02:02:18;14.88;;;8.32;;
76856;SDS011;69705;44.686;37.628;2023-05-20T02:04:44;13.45;;;8.32;;
76856;SDS011;69705;44.686;37.628;2023-05-20T02:07:15;13.18;;;8.55;;
76856;SDS011;69705;44.686;37.628;2023-05-20T02:09:45;14.57;;;8.75;;
76856;SDS011;69705;44.686;37.628;2023-05-20T02:12:12;12.70;;;8.73;;
76856;SDS011;69705;44.686;37.628;2023-05-20T02:14:46;14.63;;;8.85;;
76856;SDS011;69705;44.686;37.628;2023-05-20T02:17:15;14.18;;;8.93;;
76856;SDS011;69705;44.686;37.628;2023-05-20T02:19:42;14.85;;;8.75;;
76856;SDS011;69705;44.686;37.628;2023-05-20T02:22:10;15.27;;;8.70;;
76856;SDS011;69705;44.686;37.628;2023-05-20T02:24:36;15.17;;;8.83;;
76856;SDS011;69705;44.686;37.628;2023-05-20T02:27:03;15.70;;;8.82;;
76856;SDS011;69705;44.686;37.628;2023-05-20T02:29:33;12.55;;;8.70;;
76856;SDS011;69705;44.686;37.628;2023-05-20T02:32:00;16.25;;;8.32;;
76856;SDS011;69705;44.686;37.628;2023-05-20T02:34:27;13.77;;;8.52;;
76856;SDS011;69705;44.686;37.628;2023-05-20T02:36:55;14.77;;;9.13;;
76856;SDS011;69705;44.686;37.628;2023-05-20T02:39:22;16.13;;;9.07;;
76856;SDS011;69705;44.686;37.628;2023-05-20T02:41:49;16.10;;;8.65;;
76856;SDS011;69705;44.686;37.628;2023-05-20T02:44:16;15.15;;;8.70;;
76856;SDS011;69705;44.686;37.628;2023-05-20T02:46:43;15.10;;;8.52;;
76856;SDS011;69705;44.686;37.628;2023-05-20T02:49:09;14.30;;;8.93;;
76856;SDS011;69705;44.686;37.628;2023-05-20T02:51:36;14.20;;;8.70;;
76856;SDS011;69705;44.686;37.628;2023-05-20T02:54:02;14.20;;;8.70;;
76856;SDS011;69705;44.686;37.628;2023-05-20T02:56:29;14.70;;;8.98;;
76856;SDS011;69705;44.686;37.628;2023-05-20T02:58:57;14.40;;;9.23;;
76856;SDS011;69705;44.686;37.628;2023-05-20T03:01:25;16.00;;;9.23;;
76856;SDS011;69705;44.686;37.628;2023-05-20T03:03:52;15.10;;;9.73;;
76856;SDS011;69705;44.686;37.628;2023-05-20T03:06:19;15.95;;;9.15;;
76856;SDS011;69705;44.686;37.628;2023-05-20T03:08:46;15.52;;;9.63;;
76856;SDS011;69705;44.686;37.628;2023-05-20T03:11:14;15.73;;;9.02;;
76856;SDS011;69705;44.686;37.628;2023-05-20T03:13:40;13.90;;;9.20;;
76856;SDS011;69705;44.686;37.628;2023-05-20T03:16:07;16.60;;;9.60;;
76856;SDS011;69705;44.686;37.628;2023-05-20T03:18:34;15.20;;;9.18;;
76856;SDS011;69705;44.686;37.628;2023-05-20T03:21:00;15.40;;;9.40;;
76856;SDS011;69705;44.686;37.628;2023-05-20T03:23:27;15.32;;;9.45;;
76856;SDS011;69705;44.686;37.628;2023-05-20T03:25:54;15.83;;;9.50;;
76856;SDS011;69705;44.686;37.628;2023-05-20T03:28:21;16.67;;;9.60;;
76856;SDS011;69705;44.686;37.628;2023-05-20T03:30:48;18.90;;;10.27;;
76856;SDS011;69705;44.686;37.628;2023-05-20T03:33:16;15.35;;;8.52;;
76856;SDS011;69705;44.686;37.628;2023-05-20T03:35:42;14.63;;;9.07;;
76856;SDS011;69705;44.686;37.628;2023-05-20T03:38:09;15.43;;;8.43;;
76856;SDS011;69705;44.686;37.628;2023-05-20T03:40:37;17.25;;;9.00;;
76856;SDS011;69705;44.686;37.628;2023-05-20T03:43:05;18.73;;;8.63;;
76856;SDS011;69705;44.686;37.628;2023-05-20T03:45:31;15.60;;;9.10;;
76856;SDS011;69705;44.686;37.628;2023-05-20T03:48:03;19.50;;;8.32;;
76856;SDS011;69705;44.686;37.628;2023-05-20T03:50:32;13.90;;;7.17;;
76856;SDS011;69705;44.686;37.628;2023-05-20T03:53:00;14.95;;;7.28;;
76856;SDS011;69705;44.686;37.628;2023-05-20T03:55:30;15.38;;;6.75;;
76856;SDS011;69705;44.686;37.628;2023-05-20T03:57:57;14.80;;;6.80;;
76856;SDS011;69705;44.686;37.628;2023-05-20T04:00:24;14.93;;;5.57;;
76856;SDS011;69705;44.686;37.628;2023-05-20T04:02:51;11.70;;;5.73;;
76856;SDS011;69705;44.686;37.628;2023-05-20T04:05:18;11.25;;;5.50;;
76856;SDS011;69705;44.686;37.628;2023-05-20T04:07:46;11.40;;;5.03;;
76856;SDS011;69705;44.686;37.628;2023-05-20T04:10:13;16.60;;;4.78;;
76856;SDS011;69705;44.686;37.628;2023-05-20T04:12:39;13.80;;;4.85;;
76856;SDS011;69705;44.686;37.628;2023-05-20T04:15:06;12.70;;;4.80;;
76856;SDS011;69705;44.686;37.628;2023-05-20T04:17:56;12.68;;;4.72;;
76856;SDS011;69705;44.686;37.628;2023-05-20T04:20:23;14.57;;;5.57;;
76856;SDS011;69705;44.686;37.628;2023-05-20T04:22:52;12.18;;;5.80;;
76856;SDS011;69705;44.686;37.628;2023-05-20T04:25:20;14.57;;;5.90;;
76856;SDS011;69705;44.686;37.628;2023-05-20T04:27:47;11.30;;;5.37;;
76856;SDS011;69705;44.686;37.628;2023-05-20T04:30:15;13.32;;;5.20;;
76856;SDS011;69705;44.686;37.628;2023-05-20T04:32:47;12.82;;;5.32;;
76856;SDS011;69705;44.686;37.628;2023-05-20T04:35:15;11.73;;;5.05;;
76856;SDS011;69705;44.686;37.628;2023-05-20T04:37:44;13.10;;;6.45;;
76856;SDS011;69705;44.686;37.628;2023-05-20T04:40:14;11.87;;;5.90;;
76856;SDS011;69705;44.686;37.628;2023-05-20T04:42:41;16.30;;;5.90;;
76856;SDS011;69705;44.686;37.628;2023-05-20T04:45:10;13.70;;;6.13;;
76856;SDS011;69705;44.686;37.628;2023-05-20T04:47:38;16.27;;;6.97;;
76856;SDS011;69705;44.686;37.628;2023-05-20T04:50:05;15.13;;;6.90;;
76856;SDS011;69705;44.686;37.628;2023-05-20T04:52:36;14.27;;;7.50;;
76856;SDS011;69705;44.686;37.628;2023-05-20T04:55:11;13.43;;;6.78;;
76856;SDS011;69705;44.686;37.628;2023-05-20T04:57:38;12.32;;;7.10;;
76856;SDS011;69705;44.686;37.628;2023-05-20T05:00:07;12.77;;;7.03;;
76856;SDS011;69705;44.686;37.628;2023-05-20T05:02:36;16.98;;;6.78;;
76856;SDS011;69705;44.686;37.628;2023-05-20T05:05:03;14.30;;;7.10;;
76856;SDS011;69705;44.686;37.628;2023-05-20T05:07:30;12.88;;;7.25;;
76856;SDS011;69705;44.686;37.628;2023-05-20T05:09:57;16.42;;;7.25;;
76856;SDS011;69705;44.686;37.628;2023-05-20T05:12:23;12.60;;;7.30;;
76856;SDS011;69705;44.686;37.628;2023-05-20T05:14:50;12.63;;;7.25;;
76856;SDS011;69705;44.686;37.628;2023-05-20T05:17:17;16.67;;;7.57;;
76856;SDS011;69705;44.686;37.628;2023-05-20T05:19:43;13.25;;;7.30;;
76856;SDS011;69705;44.686;37.628;2023-05-20T05:22:10;14.40;;;7.50;;
76856;SDS011;69705;44.686;37.628;2023-05-20T05:24:38;12.45;;;7.40;;
76856;SDS011;69705;44.686;37.628;2023-05-20T05:27:05;14.23;;;7.43;;
76856;SDS011;69705;44.686;37.628;2023-05-20T05:29:31;16.20;;;7.70;;
76856;SDS011;69705;44.686;37.628;2023-05-20T05:31:58;15.45;;;7.38;;
76856;SDS011;69705;44.686;37.628;2023-05-20T05:34:25;16.65;;;7.63;;
76856;SDS011;69705;44.686;37.628;2023-05-20T05:36:51;12.52;;;7.88;;
76856;SDS011;69705;44.686;37.628;2023-05-20T05:39:18;15.82;;;7.80;;
76856;SDS011;69705;44.686;37.628;2023-05-20T05:41:45;14.00;;;7.30;;
76856;SDS011;69705;44.686;37.628;2023-05-20T05:44:11;17.63;;;8.10;;
76856;SDS011;69705;44.686;37.628;2023-05-20T05:46:38;15.38;;;7.65;;
76856;SDS011;69705;44.686;37.628;2023-05-20T05:49:05;13.02;;;6.90;;
76856;SDS011;69705;44.686;37.628;2023-05-20T05:51:32;13.55;;;7.38;;
76856;SDS011;69705;44.686;37.628;2023-05-20T05:53:58;13.83;;;7.37;;
76856;SDS011;69705;44.686;37.628;2023-05-20T05:56:25;14.88;;;7.40;;
76856;SDS011;69705;44.686;37.628;2023-05-20T05:58:52;13.35;;;7.93;;
76856;SDS011;69705;44.686;37.628;2023-05-20T06:01:18;13.02;;;7.50;;
76856;SDS011;69705;44.686;37.628;2023-05-20T06:03:45;12.80;;;7.55;;
76856;SDS011;69705;44.686;37.628;2023-05-20T06:06:12;11.83;;;6.67;;
76856;SDS011;69705;44.686;37.628;2023-05-20T06:08:38;12.98;;;7.18;;
76856;SDS011;69705;44.686;37.628;2023-05-20T06:11:06;14.57;;;6.97;;
76856;SDS011;69705;44.686;37.628;2023-05-20T06:13:32;11.60;;;7.18;;
76856;SDS011;69705;44.686;37.628;2023-05-20T06:16:00;13.30;;;6.63;;
76856;SDS011;69705;44.686;37.628;2023-05-20T06:18:27;12.07;;;6.40;;
76856;SDS011;69705;44.686;37.628;2023-05-20T06:20:57;12.32;;;7.15;;
76856;SDS011;69705;44.686;37.628;2023-05-20T06:23:24;13.27;;;7.00;;
76856;SDS011;69705;44.686;37.628;2023-05-20T06:25:57;14.05;;;6.75;;
76856;SDS011;69705;44.686;37.628;2023-05-20T06:28:25;14.65;;;7.10;;
76856;SDS011;69705;44.686;37.628;2023-05-20T06:30:56;11.30;;;6.63;;
76856;SDS011;69705;44.686;37.628;2023-05-20T06:33:25;13.05;;;6.78;;
76856;SDS011;69705;44.686;37.628;2023-05-20T06:35:54;15.18;;;7.10;;
76856;SDS011;69705;44.686;37.628;2023-05-20T06:38:22;14.77;;;7.35;;
76856;SDS011;69705;44.686;37.628;2023-05-20T06:40:49;12.57;;;7.25;;
76856;SDS011;69705;44.686;37.628;2023-05-20T06:43:16;14.43;;;6.90;;
76856;SDS011;69705;44.686;37.628;2023-05-20T06:46:11;11.85;;;6.57;;
76856;SDS011;69705;44.686;37.628;2023-05-20T06:48:44;13.13;;;7.40;;
76856;SDS011;69705;44.686;37.628;2023-05-20T06:51:11;11.80;;;7.10;;
76856;SDS011;69705;44.686;37.628;2023-05-20T06:53:39;12.95;;;7.30;;
76856;SDS011;69705;44.686;37.628;2023-05-20T06:56:05;13.97;;;7.20;;
76856;SDS011;69705;44.686;37.628;2023-05-20T06:58:32;13.45;;;7.22;;
76856;SDS011;69705;44.686;37.628;2023-05-20T07:00:59;15.40;;;7.40;;
76856;SDS011;69705;44.686;37.628;2023-05-20T07:03:26;12.57;;;7.10;;
76856;SDS011;69705;44.686;37.628;2023-05-20T07:05:52;15.27;;;6.82;;
76856;SDS011;69705;44.686;37.628;2023-05-20T07:08:20;14.30;;;7.67;;
76856;SDS011;69705;44.686;37.628;2023-05-20T07:10:46;13.43;;;7.53;;
76856;SDS011;69705;44.686;37.628;2023-05-20T07:13:16;12.77;;;7.45;;
76856;SDS011;69705;44.686;37.628;2023-05-20T07:15:46;13.52;;;7.32;;
76856;SDS011;69705;44.686;37.628;2023-05-20T07:18:14;12.48;;;6.80;;
76856;SDS011;69705;44.686;37.628;2023-05-20T07:20:42;17.87;;;9.70;;
76856;SDS011;69705;44.686;37.628;2023-05-20T07:23:18;14.52;;;7.38;;
76856;SDS011;69705;44.686;37.628;2023-05-20T07:25:52;15.75;;;7.50;;
76856;SDS011;69705;44.686;37.628;2023-05-20T07:28:19;15.82;;;8.40;;
76856;SDS011;69705;44.686;37.628;2023-05-20T07:30:46;16.08;;;8.32;;
76856;SDS011;69705;44.686;37.628;2023-05-20T07:33:21;13.23;;;6.90;;
76856;SDS011;69705;44.686;37.628;2023-05-20T07:35:48;11.65;;;6.90;;
76856;SDS011;69705;44.686;37.628;2023-05-20T07:38:15;11.63;;;6.65;;
76856;SDS011;69705;44.686;37.628;2023-05-20T07:40:44;14.45;;;7.00;;
76856;SDS011;69705;44.686;37.628;2023-05-20T07:43:10;12.75;;;6.85;;
76856;SDS011;69705;44.686;37.628;2023-05-20T07:45:37;14.37;;;7.30;;
76856;SDS011;69705;44.686;37.628;2023-05-20T07:48:03;12.90;;;7.03;;
76856;SDS011;69705;44.686;37.628;2023-05-20T07:50:30;14.50;;;7.50;;
76856;SDS011;69705;44.686;37.628;2023-05-20T07:52:57;13.10;;;7.25;;
76856;SDS011;69705;44.686;37.628;2023-05-20T07:55:26;13.90;;;7.80;;
76856;SDS011;69705;44.686;37.628;2023-05-20T07:57:54;15.37;;;7.30;;
76856;SDS011;69705;44.686;37.628;2023-05-20T08:00:21;15.52;;;6.90;;
76856;SDS011;69705;44.686;37.628;2023-05-20T08:02:48;12.73;;;7.28;;
76856;SDS011;69705;44.686;37.628;2023-05-20T08:05:20;14.25;;;7.45;;
76856;SDS011;69705;44.686;37.628;2023-05-20T08:07:47;12.18;;;6.78;;
76856;SDS011;69705;44.686;37.628;2023-05-20T08:10:15;13.80;;;6.90;;
76856;SDS011;69705;44.686;37.628;2023-05-20T08:12:43;11.73;;;6.68;;
76856;SDS011;69705;44.686;37.628;2023-05-20T08:15:10;13.38;;;6.85;;
76856;SDS011;69705;44.686;37.628;2023-05-20T08:17:37;16.88;;;7.07;;
76856;SDS011;69705;44.686;37.628;2023-05-20T08:20:04;13.05;;;6.90;;
76856;SDS011;69705;44.686;37.628;2023-05-20T08:22:35;13.43;;;7.23;;
76856;SDS011;69705;44.686;37.628;2023-05-20T08:25:02;11.02;;;6.65;;
76856;SDS011;69705;44.686;37.628;2023-05-20T08:27:29;11.48;;;6.18;;
76856;SDS011;69705;44.686;37.628;2023-05-20T08:29:56;13.50;;;7.03;;
76856;SDS011;69705;44.686;37.628;2023-05-20T08:32:23;13.93;;;6.30;;
76856;SDS011;69705;44.686;37.628;2023-05-20T08:34:49;12.27;;;7.00;;
76856;SDS011;69705;44.686;37.628;2023-05-20T08:37:16;12.40;;;6.70;;
76856;SDS011;69705;44.686;37.628;2023-05-20T08:39:45;12.52;;;6.30;;
76856;SDS011;69705;44.686;37.628;2023-05-20T08:42:14;13.27;;;6.68;;
76856;SDS011;69705;44.686;37.628;2023-05-20T08:44:41;13.73;;;7.20;;
76856;SDS011;69705;44.686;37.628;2023-05-20T08:47:11;14.00;;;7.17;;
76856;SDS011;69705;44.686;37.628;2023-05-20T08:49:38;16.15;;;7.60;;
76856;SDS011;69705;44.686;37.628;2023-05-20T08:52:04;11.57;;;6.70;;
76856;SDS011;69705;44.686;37.628;2023-05-20T08:54:43;12.18;;;6.47;;
76856;SDS011;69705;44.686;37.628;2023-05-20T08:57:11;12.93;;;6.45;;
76856;SDS011;69705;44.686;37.628;2023-05-20T08:59:41;12.03;;;6.40;;
76856;SDS011;69705;44.686;37.628;2023-05-20T09:02:10;13.55;;;6.70;;
76856;SDS011;69705;44.686;37.628;2023-05-20T09:04:37;14.32;;;6.30;;
76856;SDS011;69705;44.686;37.628;2023-05-20T09:07:04;11.65;;;6.25;;
76856;SDS011;69705;44.686;37.628;2023-05-20T09:09:32;13.20;;;6.43;;
76856;SDS011;69705;44.686;37.628;2023-05-20T09:12:00;14.90;;;6.60;;
76856;SDS011;69705;44.686;37.628;2023-05-20T09:14:28;13.82;;;6.80;;
76856;SDS011;69705;44.686;37.628;2023-05-20T09:16:55;12.73;;;6.13;;
76856;SDS011;69705;44.686;37.628;2023-05-20T09:19:22;13.50;;;6.43;;
76856;SDS011;69705;44.686;37.628;2023-05-20T09:21:50;14.27;;;6.20;;
76856;SDS011;69705;44.686;37.628;2023-05-20T09:24:20;14.93;;;6.83;;
76856;SDS011;69705;44.686;37.628;2023-05-20T09:26:49;11.23;;;6.32;;
76856;SDS011;69705;44.686;37.628;2023-05-20T09:29:15;42.67;;;7.93;;
76856;SDS011;69705;44.686;37.628;2023-05-20T09:31:42;13.10;;;6.15;;
76856;SDS011;69705;44.686;37.628;2023-05-20T09:34:09;15.88;;;6.35;;
76856;SDS011;69705;44.686;37.628;2023-05-20T09:36:36;12.03;;;5.90;;
76856;SDS011;69705;44.686;37.628;2023-05-20T09:39:05;16.10;;;6.15;;
76856;SDS011;69705;44.686;37.628;2023-05-20T09:41:38;11.35;;;6.20;;
76856;SDS011;69705;44.686;37.628;2023-05-20T09:44:14;15.90;;;6.47;;
76856;SDS011;69705;44.686;37.628;2023-05-20T09:46:41;11.75;;;5.70;;
76856;SDS011;69705;44.686;37.628;2023-05-20T09:49:10;12.63;;;6.50;;
76856;SDS011;69705;44.686;37.628;2023-05-20T09:51:38;12.48;;;6.65;;
76856;SDS011;69705;44.686;37.628;2023-05-20T09:54:06;14.32;;;6.57;;
76856;SDS011;69705;44.686;37.628;2023-05-20T09:56:36;11.95;;;6.43;;
76856;SDS011;69705;44.686;37.628;2023-05-20T09:59:04;12.05;;;6.50;;
76856;SDS011;69705;44.686;37.628;2023-05-20T10:01:31;12.10;;;6.33;;
76856;SDS011;69705;44.686;37.628;2023-05-20T10:03:58;16.30;;;6.63;;
76856;SDS011;69705;44.686;37.628;2023-05-20T10:09:36;12.93;;;6.57;;
76856;SDS011;69705;44.686;37.628;2023-05-20T10:12:38;14.73;;;7.18;;
76856;SDS011;69705;44.686;37.628;2023-05-20T10:15:15;16.60;;;8.50;;
76856;SDS011;69705;44.686;37.628;2023-05-20T10:17:55;14.38;;;7.95;;
76856;SDS011;69705;44.686;37.628;2023-05-20T10:20:29;15.40;;;7.32;;
76856;SDS011;69705;44.686;37.628;2023-05-20T10:22:56;14.80;;;6.72;;
76856;SDS011;69705;44.686;37.628;2023-05-20T10:25:24;16.42;;;6.90;;
76856;SDS011;69705;44.686;37.628;2023-05-20T10:30:56;13.85;;;7.05;;
76856;SDS011;69705;44.686;37.628;2023-05-20T10:33:24;14.88;;;6.93;;
76856;SDS011;69705;44.686;37.628;2023-05-20T10:35:58;13.90;;;6.57;;
76856;SDS011;69705;44.686;37.628;2023-05-20T10:38:25;16.80;;;6.68;;
76856;SDS011;69705;44.686;37.628;2023-05-20T10:40:52;15.53;;;7.30;;
76856;SDS011;69705;44.686;37.628;2023-05-20T10:43:25;17.05;;;7.45;;
76856;SDS011;69705;44.686;37.628;2023-05-20T10:45:56;16.08;;;7.18;;
76856;SDS011;69705;44.686;37.628;2023-05-20T10:48:24;16.42;;;7.38;;
76856;SDS011;69705;44.686;37.628;2023-05-20T10:50:58;16.88;;;8.57;;
76856;SDS011;69705;44.686;37.628;2023-05-20T10:53:29;13.07;;;5.43;;
76856;SDS011;69705;44.686;37.628;2023-05-20T10:56:04;14.65;;;4.78;;
76856;SDS011;69705;44.686;37.628;2023-05-20T10:58:37;9.98;;;4.18;;
76856;SDS011;69705;44.686;37.628;2023-05-20T11:01:04;11.73;;;4.30;;
76856;SDS011;69705;44.686;37.628;2023-05-20T11:03:31;10.73;;;4.13;;
76856;SDS011;69705;44.686;37.628;2023-05-20T11:05:59;10.20;;;3.73;;
76856;SDS011;69705;44.686;37.628;2023-05-20T11:08:28;10.63;;;3.95;;
76856;SDS011;69705;44.686;37.628;2023-05-20T11:10:58;12.40;;;4.13;;
76856;SDS011;69705;44.686;37.628;2023-05-20T11:13:25;12.43;;;3.90;;
76856;SDS011;69705;44.686;37.628;2023-05-20T11:15:52;11.50;;;4.07;;
76856;SDS011;69705;44.686;37.628;2023-05-20T11:18:19;11.30;;;3.90;;
76856;SDS011;69705;44.686;37.628;2023-05-20T11:20:46;12.20;;;3.92;;
76856;SDS011;69705;44.686;37.628;2023-05-20T11:23:13;10.65;;;3.97;;
76856;SDS011;69705;44.686;37.628;2023-05-20T11:25:40;11.07;;;3.60;;
76856;SDS011;69705;44.686;37.628;2023-05-20T11:28:08;11.75;;;3.75;;
76856;SDS011;69705;44.686;37.628;2023-05-20T11:30:38;12.23;;;3.80;;
76856;SDS011;69705;44.686;37.628;2023-05-20T11:33:06;11.82;;;3.63;;
76856;SDS011;69705;44.686;37.628;2023-05-20T11:35:37;12.05;;;3.60;;
76856;SDS011;69705;44.686;37.628;2023-05-20T11:38:17;11.38;;;3.83;;
76856;SDS011;69705;44.686;37.628;2023-05-20T11:40:45;9.45;;;3.60;;
76856;SDS011;69705;44.686;37.628;2023-05-20T11:43:19;13.87;;;3.70;;
76856;SDS011;69705;44.686;37.628;2023-05-20T11:45:51;15.10;;;3.53;;
76856;SDS011;69705;44.686;37.628;2023-05-20T11:48:19;9.93;;;3.50;;
76856;SDS011;69705;44.686;37.628;2023-05-20T11:50:46;12.20;;;3.70;;
76856;SDS011;69705;44.686;37.628;2023-05-20T11:53:14;10.52;;;3.90;;
76856;SDS011;69705;44.686;37.628;2023-05-20T11:58:19;10.88;;;3.58;;
76856;SDS011;69705;44.686;37.628;2023-05-20T12:00:48;14.40;;;4.00;;
76856;SDS011;69705;44.686;37.628;2023-05-20T12:03:14;11.60;;;3.70;;
76856;SDS011;69705;44.686;37.628;2023-05-20T12:05:41;10.18;;;3.50;;
76856;SDS011;69705;44.686;37.628;2023-05-20T12:08:08;11.77;;;3.53;;
76856;SDS011;69705;44.686;37.628;2023-05-20T12:10:36;10.93;;;3.40;;
76856;SDS011;69705;44.686;37.628;2023-05-20T12:13:02;11.52;;;3.42;;
76856;SDS011;69705;44.686;37.628;2023-05-20T12:15:30;8.23;;;3.35;;
76856;SDS011;69705;44.686;37.628;2023-05-20T12:17:56;12.40;;;3.38;;
76856;SDS011;69705;44.686;37.628;2023-05-20T12:20:23;11.60;;;3.10;;
76856;SDS011;69705;44.686;37.628;2023-05-20T12:22:50;10.02;;;3.30;;
76856;SDS011;69705;44.686;37.628;2023-05-20T12:25:17;13.02;;;3.50;;
76856;SDS011;69705;44.686;37.628;2023-05-20T12:27:46;9.73;;;3.50;;
76856;SDS011;69705;44.686;37.628;2023-05-20T12:30:14;13.05;;;3.38;;
76856;SDS011;69705;44.686;37.628;2023-05-20T12:32:45;12.60;;;3.13;;
76856;SDS011;69705;44.686;37.628;2023-05-20T12:35:12;10.55;;;3.22;;
76856;SDS011;69705;44.686;37.628;2023-05-20T12:37:40;9.70;;;3.60;;
76856;SDS011;69705;44.686;37.628;2023-05-20T12:40:08;8.27;;;3.10;;
76856;SDS011;69705;44.686;37.628;2023-05-20T12:42:37;12.50;;;3.50;;
76856;SDS011;69705;44.686;37.628;2023-05-20T12:45:05;12.37;;;3.43;;
76856;SDS011;69705;44.686;37.628;2023-05-20T12:47:33;10.40;;;3.33;;
76856;SDS011;69705;44.686;37.628;2023-05-20T12:50:01;11.95;;;3.13;;
76856;SDS011;69705;44.686;37.628;2023-05-20T12:52:30;11.10;;;3.55;;
76856;SDS011;69705;44.686;37.628;2023-05-20T12:54:57;10.30;;;3.40;;
76856;SDS011;69705;44.686;37.628;2023-05-20T12:57:23;10.30;;;3.37;;
76856;SDS011;69705;44.686;37.628;2023-05-20T12:59:50;14.23;;;3.60;;
76856;SDS011;69705;44.686;37.628;2023-05-20T13:02:17;9.35;;;3.35;;
76856;SDS011;69705;44.686;37.628;2023-05-20T13:04:44;9.25;;;3.25;;
76856;SDS011;69705;44.686;37.628;2023-05-20T13:07:11;13.93;;;3.80;;
76856;SDS011;69705;44.686;37.628;2023-05-20T13:09:37;8.47;;;3.30;;
76856;SDS011;69705;44.686;37.628;2023-05-20T13:12:04;9.50;;;3.28;;
76856;SDS011;69705;44.686;37.628;2023-05-20T13:14:31;10.60;;;3.45;;
76856;SDS011;69705;44.686;37.628;2023-05-20T13:16:57;9.18;;;3.53;;
76856;SDS011;69705;44.686;37.628;2023-05-20T13:19:24;15.73;;;3.63;;
76856;SDS011;69705;44.686;37.628;2023-05-20T13:21:51;8.03;;;3.20;;
76856;SDS011;69705;44.686;37.628;2023-05-20T13:24:19;10.52;;;4.00;;
76856;SDS011;69705;44.686;37.628;2023-05-20T13:26:46;14.70;;;3.50;;
76856;SDS011;69705;44.686;37.628;2023-05-20T13:29:13;14.60;;;4.05;;
76856;SDS011;69705;44.686;37.628;2023-05-20T13:31:40;13.30;;;4.28;;
76856;SDS011;69705;44.686;37.628;2023-05-20T13:34:07;12.20;;;4.90;;
76856;SDS011;69705;44.686;37.628;2023-05-20T13:36:33;12.93;;;4.97;;
76856;SDS011;69705;44.686;37.628;2023-05-20T13:39:00;11.27;;;4.57;;
76856;SDS011;69705;44.686;37.628;2023-05-20T13:41:27;14.07;;;5.47;;
76856;SDS011;69705;44.686;37.628;2023-05-20T13:43:54;13.55;;;5.35;;
76856;SDS011;69705;44.686;37.628;2023-05-20T13:46:21;9.53;;;4.20;;
76856;SDS011;69705;44.686;37.628;2023-05-20T13:48:48;11.40;;;3.30;;
76856;SDS011;69705;44.686;37.628;2023-05-20T13:51:14;9.18;;;3.35;;
76856;SDS011;69705;44.686;37.628;2023-05-20T13:53:41;11.73;;;3.20;;
76856;SDS011;69705;44.686;37.628;2023-05-20T13:56:08;11.93;;;4.00;;
76856;SDS011;69705;44.686;37.628;2023-05-20T13:58:34;11.67;;;4.50;;
76856;SDS011;69705;44.686;37.628;2023-05-20T14:01:02;18.08;;;5.97;;
76856;SDS011;69705;44.686;37.628;2023-05-20T14:03:30;17.90;;;5.90;;
76856;SDS011;69705;44.686;37.628;2023-05-20T14:05:58;14.35;;;6.30;;
76856;SDS011;69705;44.686;37.628;2023-05-20T14:08:26;14.52;;;5.90;;
76856;SDS011;69705;44.686;37.628;2023-05-20T14:10:53;17.40;;;5.90;;
76856;SDS011;69705;44.686;37.628;2023-05-20T14:13:21;11.13;;;4.38;;
76856;SDS011;69705;44.686;37.628;2023-05-20T14:15:48;13.60;;;4.55;;
76856;SDS011;69705;44.686;37.628;2023-05-20T14:18:16;14.75;;;4.90;;
76856;SDS011;69705;44.686;37.628;2023-05-20T14:20:43;11.98;;;4.65;;
76856;SDS011;69705;44.686;37.628;2023-05-20T14:23:10;10.60;;;5.07;;
76856;SDS011;69705;44.686;37.628;2023-05-20T14:25:37;11.88;;;3.50;;
76856;SDS011;69705;44.686;37.628;2023-05-20T14:28:04;10.30;;;4.40;;
76856;SDS011;69705;44.686;37.628;2023-05-20T14:30:31;13.95;;;4.10;;
76856;SDS011;69705;44.686;37.628;2023-05-20T14:32:58;16.67;;;6.30;;
76856;SDS011;69705;44.686;37.628;2023-05-20T14:35:24;16.67;;;6.57;;